Airfield :
LOGIN :

Register | Disclaimer

   EN    FR    IT 

 










Legend :    VFR   Marginal VFR   IFR   Intensive IFR   Very Intensive IFR
Visi :
Ceiling :
>= 8 km
>= 3000ft
5 to 8 km
1000 to 3000 ft
1500m to 5 km
500 to 1000 ft
800 to 1500m
200 to 500 ft
< 800m
< 200 ft
Symbols :   Thunderstorms  Fog  Heavy snow  Heavy precipitations  Wind > 20 kt
SIGMETs :     Misc.  Thunderstorms  Icing  Turbulence  Mountain Waves  Volcanic Ashes






- Airport Elevation : 3 ft
- IATA code : LWR


EHLW - Leuuwarden Air Base

CURRENT METAR :
  • 191225Z AUTO 22006KT 9999 FEW015CB SCT027 07/05 Q1014 BLU 21006KT 9999 FEW030 TEMPO FEW018CB SCT025

EXPIRED METARs :
  • 191210Z AUTO 21006KT 9999 FEW030 08/05 Q1014 BLU 21006KT 9999 FEW030 TEMPO FEW018CB SCT025
  • 191155Z AUTO 21007KT 200V270 9999 FEW012 SCT034 BKN046 07/05 Q1014 BLU 22006KT 9999 FEW025 TEMPO FEW018CB SCT025
  • 191142Z AUTO 22006KT 9999 RA FEW024 BKN032 BKN037 07/04 Q1014 BLU 22006KT 9999 FEW025 TEMPO FEW018CB SCT025
  • 191125Z AUTO 22007KT 9999 NCD 07/04 Q1014 BLU 22006KT 9999 FEW025 TEMPO FEW018CB SCT025
  • 191101Z AUTO 22006KT 9999 BKN087 OVC093 07/04 Q1014 BLU 22006KT 9999 FEW025 TEMPO FEW018CB SCT025
  • 191055Z AUTO 22004KT 190V260 9999 BKN083 OVC089 07/03 Q1014 BLU 28007KT 9999 FEW025 TEMPO FEW018CB SCT025
  • 191039Z AUTO 12002KT 9999 FEW025 SCT057 BKN072 07/04 Q1013 BLU 28007KT 9999 FEW025 TEMPO FEW018CB SCT025
  • 191025Z AUTO VRB03KT 9999 FEW021 SCT038 BKN042 06/03 Q1014 BLU 28007KT 9999 FEW025 TEMPO FEW018CB SCT025
  • 191010Z AUTO 29012KT 250V310 9000 -SHRA FEW016 SCT021 BKN033 06/03 Q1014 WHT 28007KT 9999 FEW025 TEMPO FEW018CB SCT025
  • 191002Z AUTO 29013KT 6000 -RA FEW023 BKN029 OVC032 07/04 Q1014 WHT 28007KT 9999 FEW025 TEMPO FEW018CB SCT025
  • 190955Z AUTO 29014KT 9999 SCT028 SCT035 BKN042 07/04 Q1013 BLU 28007KT 9999 FEW025 TEMPO FEW018CB SCT025

TAF TAF EHLW
Valid from the 19 at 10:00 until the 19 at 22:00 UTC


190906Z 1910/1922 28006KT 9999 SCT035
PROB40
TEMPO 1910/1912 FEW015 SCT018CB BKN025
BECMG 1915/1918 VRB03KT
BECMG 1918/1921 4000 BR MIFG



MET'MAP, your aeronautical weather chart ! - Copyright ORBIFLY December 2007 - Disclaimer

ORBIFLY MET'MAP TEAM :

Programming & Development : Alexandra Zaïnal
Concept & Development : Baudouin d'Aumeries
Co-Development & Prog : Marc-Olivier Méhu
Technical & hardware support : Manuel Goepfert

Contact : metmap@orbifly.com




SOURCES & CREDITS :

   NOAA